S/y Merliz — SE2449 — position and weather

sailwx.info

Track history (hours):
 
Tides and Currents Weather Stations Pressure Air Temp Water Temp Dewpoint Dewpoint Depression Visibility Wind Speed Wind Dir Waves Ship Positions

S/y Merliz

Last reported at 2015-May-27 13:29 UTC. Time now 2015-May-28 18:09 UTC.
Position N 57°33' E 017°02'.

Length 12 m.

Type: Sailing vessel. MMSI: 265694940.

Date/timePositionNaut miles runAvg speedWind from/ knotsBaromVisibWave heightAir tempDewpointWater temp
2015-May-27 13:29N 57°33' E 017°02'7 7.0
2015-May-27 12:33N 57°27' E 016°56'7 7.5
2015-May-27 11:33N 57°20' E 016°52'6 5.8
2015-May-27 10:33N 57°15' E 016°47'5 5.5
2015-May-27 09:33N 57°15' E 016°37'4 4.2
2015-May-27 08:32N 57°16' E 016°29'1 0.1
2015-May-26 22:22N 57°16' E 016°28'4 4.2
2015-May-26 21:31N 57°17' E 016°35'6 5.9
2015-May-26 20:32N 57°15' E 016°45'4 4.5
2015-May-26 19:33N 57°16' E 016°52'6 5.5
2015-May-26 18:32N 57°20' E 017°00'5 4.7
2015-May-26 17:29N 57°24' E 017°06'  
Track history (hours):
 
Tides and Currents Weather Stations Pressure Air Temp Water Temp Dewpoint Dewpoint Depression Visibility Wind Speed Wind Dir Waves Ship Positions

S/y Merliz

Last reported at 2015-May-27 13:29 UTC. Time now 2015-May-28 18:09 UTC.
Position N 57°33' E 017°02'.

Length 12 m.

Type: Sailing vessel. MMSI: 265694940.

Date/timePositionNaut miles runAvg speedWind from/ knotsBaromVisibWave heightAir tempDewpointWater temp
2015-May-27 13:29N 57°33' E 017°02'7 7.0
2015-May-27 12:33N 57°27' E 016°56'7 7.5
2015-May-27 11:33N 57°20' E 016°52'6 5.8
2015-May-27 10:33N 57°15' E 016°47'5 5.5
2015-May-27 09:33N 57°15' E 016°37'4 4.2
2015-May-27 08:32N 57°16' E 016°29'1 0.1
2015-May-26 22:22N 57°16' E 016°28'4 4.2
2015-May-26 21:31N 57°17' E 016°35'6 5.9
2015-May-26 20:32N 57°15' E 016°45'4 4.5
2015-May-26 19:33N 57°16' E 016°52'6 5.5
2015-May-26 18:32N 57°20' E 017°00'5 4.7
2015-May-26 17:29N 57°24' E 017°06'  

Dump ship's entire track history